Time;durP1;ratioP1;P1;durP2;ratioP2;P2;SDS_P1;SDS_P2;PMS_P1;PMS_P2;Temp;Humidity;BMP_temperature;BMP_pressure;BME280_temperature;BME280_humidity;BME280_pressure;Samples;Min_cycle;Max_cycle;Signal;HPM_P1;HPM_P2
2021/11/22 00:01:46;;;;;;;24.60;7.80;;;6.80;99.90;;;7.50;100.00;97987.75;5065697;28;20861;-84
2021/11/22 00:04:16;;;;;;;14.07;7.63;;;6.80;99.90;;;7.50;100.00;97982.53;5071154;28;20505;-84
2021/11/22 00:06:45;;;;;;;18.63;8.03;;;6.80;99.90;;;7.52;100.00;97990.19;5066589;28;20822;-84
2021/11/22 00:09:14;;;;;;;20.70;7.67;;;6.90;99.90;;;7.47;100.00;97984.66;5061419;28;20538;-84
2021/11/22 00:11:44;;;;;;;15.30;7.00;;;6.90;99.90;;;7.45;100.00;97982.25;5064294;28;20901;-84
2021/11/22 00:14:13;;;;;;;18.70;7.10;;;6.80;99.90;;;7.46;100.00;97985.66;5065301;28;20869;-83
2021/11/22 00:16:42;;;;;;;20.13;8.03;;;6.80;99.90;;;7.47;100.00;97982.88;5066922;28;20467;-84
2021/11/22 00:19:11;;;;;;;19.10;8.40;;;6.90;99.90;;;7.44;100.00;97983.22;5064978;28;20492;-84
2021/11/22 00:21:40;;;;;;;17.47;7.87;;;6.80;99.90;;;7.40;100.00;97989.75;5064795;28;20566;-84
2021/11/22 00:24:09;;;;;;;12.50;6.43;;;6.80;99.90;;;7.38;100.00;97981.31;5064674;28;20461;-84
2021/11/22 00:26:38;;;;;;;16.40;8.20;;;6.80;99.90;;;7.39;100.00;97990.72;5065888;28;20472;-84
2021/11/22 00:29:08;;;;;;;19.80;7.63;;;6.70;99.90;;;7.39;100.00;98001.13;5065051;28;20948;-84
2021/11/22 00:31:36;;;;;;;24.93;8.00;;;6.80;99.90;;;7.40;100.00;98000.16;5063747;28;20892;-84
2021/11/22 00:34:05;;;;;;;13.63;7.17;;;6.70;99.90;;;7.29;100.00;97995.28;5063166;28;20470;-84
2021/11/22 00:36:34;;;;;;;16.43;7.20;;;6.60;99.90;;;7.36;100.00;98001.44;5066729;28;20475;-84
2021/11/22 00:39:03;;;;;;;16.40;8.70;;;6.70;99.90;;;7.34;100.00;98006.03;5064980;28;20523;-84
2021/11/22 00:41:31;;;;;;;20.70;7.00;;;6.70;99.90;;;7.29;100.00;98010.91;5066652;28;20460;-84
2021/11/22 00:44:00;;;;;;;12.60;7.73;;;6.80;99.90;;;7.32;100.00;98015.78;5061954;28;20899;-84
2021/11/22 00:46:30;;;;;;;17.00;6.83;;;6.80;99.90;;;7.33;100.00;98017.41;5064215;28;20488;-84
2021/11/22 00:48:59;;;;;;;13.83;7.37;;;6.80;99.90;;;7.28;100.00;98013.69;5063037;28;20561;-84
2021/11/22 00:51:27;;;;;;;15.77;7.33;;;6.70;99.90;;;7.28;100.00;98014.50;5064508;28;21242;-84
2021/11/22 00:53:57;;;;;;;10.90;6.47;;;6.70;99.90;;;7.28;100.00;98014.50;5062024;28;20466;-84
2021/11/22 00:56:28;;;;;;;16.13;8.17;;;6.70;99.90;;;7.27;100.00;98025.06;5055215;28;20465;-84
2021/11/22 00:58:56;;;;;;;11.97;7.07;;;6.60;99.90;;;7.29;100.00;98026.50;5069972;28;20552;-84
2021/11/22 01:01:25;;;;;;;17.40;6.50;;;6.60;99.90;;;7.28;100.00;98029.28;5069229;28;20460;-84
2021/11/22 01:03:55;;;;;;;20.30;6.93;;;6.60;99.90;;;7.30;100.00;98033.34;5060003;28;20464;-84
2021/11/22 01:06:24;;;;;;;14.50;7.10;;;6.70;99.90;;;7.23;100.00;98027.19;5068249;28;20490;-84
2021/11/22 01:08:53;;;;;;;9.60;6.40;;;6.60;99.90;;;7.27;100.00;98040.66;5069745;28;20964;-84
2021/11/22 01:11:23;;;;;;;17.67;7.07;;;6.60;99.90;;;7.21;100.00;98038.72;5071803;28;20444;-84
2021/11/22 01:13:52;;;;;;;15.23;6.40;;;6.50;99.90;;;7.26;100.00;98036.44;5066145;28;20464;-84
2021/11/22 01:16:20;;;;;;;21.10;6.40;;;6.70;99.90;;;7.30;100.00;98041.13;5065862;28;20873;-84
2021/11/22 01:18:49;;;;;;;14.57;5.83;;;6.70;99.90;;;7.28;100.00;98053.50;5068506;28;20488;-84
2021/11/22 01:21:19;;;;;;;15.00;6.63;;;6.70;99.90;;;7.26;100.00;98046.81;5071113;28;20464;-84
2021/11/22 01:23:48;;;;;;;13.30;6.23;;;6.70;99.90;;;7.29;100.00;98043.94;5065166;28;20911;-84
2021/11/22 01:26:16;;;;;;;11.30;6.60;;;6.70;99.90;;;7.31;100.00;98052.38;5069683;28;20987;-84
2021/11/22 01:28:46;;;;;;;13.67;6.10;;;6.70;99.90;;;7.27;100.00;98046.69;5070525;28;20472;-84
2021/11/22 01:31:16;;;;;;;12.40;6.33;;;6.60;99.90;;;7.26;100.00;98052.03;5064962;28;20889;-84
2021/11/22 01:33:45;;;;;;;14.00;5.97;;;6.60;99.90;;;7.25;100.00;98051.25;5066530;28;20472;-84
2021/11/22 01:36:14;;;;;;;15.80;5.60;;;6.70;99.90;;;7.26;100.00;98052.03;5070603;28;20452;-84
2021/11/22 01:38:44;;;;;;;19.63;6.50;;;6.70;99.90;;;7.31;100.00;98054.97;5067809;28;20465;-84
2021/11/22 01:41:13;;;;;;;13.13;5.90;;;6.70;99.90;;;7.34;100.00;98065.84;5067264;28;20510;-84
2021/11/22 01:43:41;;;;;;;21.40;6.60;;;6.70;99.90;;;7.35;100.00;98066.66;5063657;28;20509;-84
2021/11/22 01:46:19;;;;;;;14.10;5.33;;;6.70;99.90;;;7.35;100.00;98070.09;5066432;28;20484;-84
2021/11/22 01:48:49;;;;;;;13.97;5.33;;;6.60;99.90;;;7.34;100.00;98076.25;5070831;28;20514;-85
2021/11/22 01:51:17;;;;;;;12.13;5.73;;;6.60;99.90;;;7.36;100.00;98074.28;5070565;28;20464;-84
2021/11/22 01:53:48;;;;;;;23.53;6.40;;;6.60;99.90;;;7.40;100.00;98075.56;5063012;28;20876;-84
2021/11/22 01:56:21;;;;;;;13.27;5.80;;;6.70;99.90;;;7.35;100.00;98077.06;5068303;28;20685;-84
2021/11/22 01:58:50;;;;;;;21.43;5.67;;;6.60;99.90;;;7.36;100.00;98084.69;5069649;28;20460;-84
2021/11/22 02:01:20;;;;;;;11.70;5.10;;;6.70;99.90;;;7.36;100.00;98084.69;5059888;28;21025;-84
2021/11/22 02:03:50;;;;;;;9.37;5.03;;;6.60;99.90;;;7.35;100.00;98092.66;5068281;28;20495;-84
2021/11/22 02:06:19;;;;;;;15.33;4.27;;;6.70;99.90;;;7.33;100.00;98084.19;5069888;28;20464;-84
2021/11/22 02:08:50;;;;;;;15.27;5.47;;;6.70;99.90;;;7.26;100.00;98091.84;5068099;28;20892;-84
2021/11/22 02:11:19;;;;;;;12.63;4.80;;;6.70;99.90;;;7.27;100.00;98090.88;5069334;28;20533;-84
2021/11/22 02:13:48;;;;;;;7.20;4.87;;;6.60;99.90;;;7.26;100.00;98098.84;5068359;28;20541;-84
2021/11/22 02:16:17;;;;;;;11.83;5.50;;;6.60;99.90;;;7.19;100.00;98109.09;5061556;28;20472;-83
2021/11/22 02:18:46;;;;;;;12.63;5.00;;;6.50;99.90;;;7.14;100.00;98107.97;5066418;28;20496;-84
2021/11/22 02:21:16;;;;;;;11.40;5.07;;;6.50;99.90;;;7.09;100.00;98111.06;5070074;28;20496;-84
2021/11/22 02:23:46;;;;;;;10.13;4.33;;;6.50;99.90;;;7.09;100.00;98114.47;5062862;28;20460;-84
2021/11/22 02:26:15;;;;;;;7.87;4.40;;;6.50;99.90;;;7.08;100.00;98119.81;5063871;28;20524;-83
2021/11/22 02:28:44;;;;;;;8.60;6.13;;;6.50;99.90;;;7.06;100.00;98113.97;5069372;28;20460;-83
2021/11/22 02:31:13;;;;;;;9.27;4.80;;;6.50;99.90;;;7.06;100.00;98119.19;5063868;28;20464;-84
2021/11/22 02:33:42;;;;;;;11.17;4.80;;;6.40;99.90;;;7.04;100.00;98111.56;5062851;28;20513;-84
2021/11/22 02:36:10;;;;;;;11.10;5.83;;;6.40;99.90;;;7.07;100.00;98118.22;5069987;28;20468;-84
2021/11/22 02:38:41;;;;;;;15.03;5.27;;;6.40;99.90;;;7.09;100.00;98124.06;5066496;28;20495;-84
2021/11/22 02:41:11;;;;;;;6.90;4.40;;;6.40;99.90;;;7.08;100.00;98123.25;5064104;28;20500;-84
2021/11/22 02:43:42;;;;;;;9.57;4.63;;;6.40;99.90;;;7.08;100.00;98125.03;5065334;28;20461;-84
2021/11/22 02:46:11;;;;;;;10.47;3.97;;;6.40;99.90;;;7.07;100.00;98131.22;5072815;28;20472;-84
2021/11/22 02:48:40;;;;;;;12.30;4.40;;;6.50;99.90;;;7.05;100.00;98123.56;5063298;28;20483;-84
2021/11/22 02:51:10;;;;;;;8.03;4.50;;;6.40;99.90;;;7.07;100.00;98126.00;5068085;28;21038;-84
2021/11/22 02:53:40;;;;;;;8.83;4.80;;;6.40;99.90;;;7.05;100.00;98130.53;5066038;28;20461;-84
2021/11/22 02:56:11;;;;;;;7.27;4.30;;;6.30;99.90;;;7.02;100.00;98129.09;5061037;28;20895;-84
2021/11/22 02:58:41;;;;;;;14.57;4.43;;;6.30;99.90;;;7.02;100.00;98139.50;5060380;28;20456;-84
2021/11/22 03:01:12;;;;;;;11.87;4.53;;;6.30;99.90;;;7.01;100.00;98131.88;5057626;28;20504;-83
2021/11/22 03:03:41;;;;;;;13.80;4.83;;;6.30;99.90;;;7.02;100.00;98139.50;5064989;28;20468;-84
2021/11/22 03:06:14;;;;;;;9.73;4.20;;;6.30;99.90;;;7.04;100.00;98134.97;5068124;28;20513;-85
2021/11/22 03:08:46;;;;;;;13.37;4.63;;;6.40;99.90;;;7.07;100.00;98141.63;5067189;28;21096;-84
2021/11/22 03:11:17;;;;;;;9.50;5.20;;;6.40;99.90;;;7.04;100.00;98141.94;5066732;28;20552;-84
2021/11/22 03:13:48;;;;;;;9.10;4.80;;;6.30;99.90;;;7.04;100.00;98147.16;5069584;28;20460;-84
2021/11/22 03:16:19;;;;;;;18.07;4.77;;;6.30;99.90;;;7.05;100.00;98146.16;5064211;28;20463;-84
2021/11/22 03:18:48;;;;;;;7.57;4.33;;;6.30;99.90;;;7.04;100.00;98141.94;5065345;28;20468;-84
2021/11/22 03:21:17;;;;;;;10.70;4.50;;;6.30;99.90;;;7.04;100.00;98144.53;5068094;28;21043;-84
2021/11/22 03:23:47;;;;;;;12.27;4.50;;;6.30;99.90;;;7.01;100.00;98150.06;5058040;28;20539;-84
2021/11/22 03:26:16;;;;;;;7.23;4.67;;;6.30;99.90;;;7.00;100.00;98158.84;5067461;28;20480;-84
2021/11/22 03:28:44;;;;;;;15.63;4.67;;;6.30;99.90;;;6.99;100.00;98157.19;5064867;28;20468;-84
2021/11/22 03:31:13;;;;;;;11.93;4.60;;;6.30;99.90;;;6.99;100.00;98159.81;5064488;28;20457;-84
2021/11/22 03:33:45;;;;;;;8.93;4.60;;;6.20;99.90;;;6.97;100.00;98157.38;5067115;28;20456;-84
2021/11/22 03:36:14;;;;;;;9.70;4.20;;;6.30;99.90;;;6.92;100.00;98170.03;5066776;28;20948;-84
2021/11/22 03:38:43;;;;;;;11.80;5.00;;;6.20;99.90;;;6.95;100.00;98172.31;5065061;28;20972;-84
2021/11/22 03:41:14;;;;;;;8.47;4.87;;;6.20;99.90;;;6.90;100.00;98168.56;5066096;28;20553;-84
2021/11/22 03:43:49;;;;;;;5.90;4.30;;;6.10;99.90;;;6.90;100.00;98166.78;5063783;28;20456;-84
2021/11/22 03:46:20;;;;;;;9.40;4.70;;;6.10;99.90;;;6.88;100.00;98168.72;5063881;28;20660;-84
2021/11/22 03:48:50;;;;;;;28.00;12.43;;;6.20;99.90;;;6.88;100.00;98173.09;5062415;28;20596;-86
2021/11/22 03:51:19;;;;;;;12.00;5.90;;;6.10;99.90;;;6.83;100.00;98180.59;5061967;28;20457;-84
2021/11/22 03:53:48;;;;;;;11.70;4.30;;;6.10;99.90;;;6.82;100.00;98181.53;5065034;28;20468;-85
2021/11/22 03:56:20;;;;;;;7.77;4.90;;;6.10;99.90;;;6.84;100.00;98192.59;5067130;28;20448;-84
2021/11/22 03:58:49;;;;;;;15.20;4.60;;;6.10;99.90;;;6.80;100.00;98183.50;5057659;28;20460;-83
2021/11/22 04:01:17;;;;;;;13.47;4.27;;;6.20;99.90;;;6.79;100.00;98192.25;5067256;28;20491;-83
2021/11/22 04:03:47;;;;;;;10.07;4.83;;;6.10;99.90;;;6.79;100.00;98197.47;5068696;28;20563;-83
2021/11/22 04:06:15;;;;;;;10.57;4.50;;;6.10;99.90;;;6.76;100.00;98197.78;5066956;28;20453;-83
2021/11/22 04:08:45;;;;;;;9.13;3.93;;;6.10;99.90;;;6.74;100.00;98199.72;5067487;28;20456;-84
2021/11/22 04:11:14;;;;;;;9.33;3.90;;;6.00;99.90;;;6.77;100.00;98196.81;5063690;28;20526;-84
2021/11/22 04:13:44;;;;;;;10.17;3.83;;;6.10;99.90;;;6.72;100.00;98204.28;5065745;28;20533;-83
2021/11/22 04:16:14;;;;;;;6.93;3.70;;;6.10;99.90;;;6.69;100.00;98204.59;5068223;28;20850;-83
2021/11/22 04:18:45;;;;;;;12.33;4.00;;;6.10;99.90;;;6.67;100.00;98216.91;5066013;28;20523;-83
2021/11/22 04:21:18;;;;;;;18.10;5.20;;;6.10;99.90;;;6.71;100.00;98207.81;5067867;28;21084;-84
2021/11/22 04:23:47;;;;;;;8.00;3.60;;;6.00;99.90;;;6.74;100.00;98212.69;5068089;28;20527;-83
2021/11/22 04:26:18;;;;;;;5.53;3.50;;;6.10;99.90;;;6.76;100.00;98226.38;5062412;28;20511;-83
2021/11/22 04:28:48;;;;;;;7.33;3.57;;;6.10;99.90;;;6.78;100.00;98229.59;5065981;28;20460;-83
2021/11/22 04:31:18;;;;;;;10.47;4.60;;;6.10;99.90;;;6.75;100.00;98227.34;5062102;28;20460;-84
2021/11/22 04:33:47;;;;;;;24.37;4.93;;;6.10;99.90;;;6.76;100.00;98226.38;5054320;28;20473;-84
2021/11/22 04:36:15;;;;;;;7.23;3.80;;;6.10;99.90;;;6.69;100.00;98240.97;5057275;28;20510;-85
2021/11/22 04:38:44;;;;;;;12.87;3.77;;;6.10;99.90;;;6.67;100.00;98246.31;5057711;28;20890;-84
2021/11/22 04:41:13;;;;;;;11.60;4.47;;;6.10;99.90;;;6.69;100.00;98246.97;5063854;28;20561;-84
2021/11/22 04:43:41;;;;;;;8.60;3.80;;;6.10;99.90;;;6.70;100.00;98238.19;5062922;28;20453;-85
2021/11/22 04:46:11;;;;;;;8.23;4.07;;;6.10;99.90;;;6.69;100.00;98249.56;5068688;28;20468;-84
2021/11/22 04:48:40;;;;;;;7.70;4.03;;;6.10;99.90;;;6.68;100.00;98250.53;5062058;28;20491;-85
2021/11/22 04:51:10;;;;;;;9.27;3.97;;;6.00;99.90;;;6.64;100.00;98251.00;5046225;28;20461;-84
2021/11/22 04:53:39;;;;;;;9.10;4.17;;;6.00;99.90;;;6.67;100.00;98248.09;5052645;28;20448;-84
2021/11/22 05:51:38;;;;;;;13.03;3.73;;;5.10;99.90;;;5.82;100.00;98308.59;5092070;27;21123;-84
2021/11/22 05:54:07;;;;;;;10.02;4.20;;;5.10;99.90;;;5.86;100.00;98321.19;5076293;28;20448;-82
2021/11/22 05:56:36;;;;;;;6.20;3.17;;;5.20;99.90;;;5.94;100.00;98328.19;5076882;28;20201;-82
2021/11/22 05:59:05;;;;;;;13.80;3.80;;;5.30;99.90;;;6.00;100.00;98330.19;5077016;28;21041;-80
2021/11/22 06:01:34;;;;;;;8.60;3.60;;;5.30;99.90;;;6.07;100.00;98333.81;5070742;28;20510;-80
2021/11/22 06:04:02;;;;;;;5.47;2.90;;;5.40;99.90;;;6.09;100.00;98339.66;5086962;28;20469;-81
2021/11/22 06:06:31;;;;;;;11.47;3.73;;;5.40;99.90;;;6.14;100.00;98342.63;5088151;28;20490;-80
2021/11/22 06:09:01;;;;;;;9.67;3.83;;;5.50;99.90;;;6.18;100.00;98348.34;5095316;28;20451;-80
2021/11/22 06:11:30;;;;;;;7.07;3.03;;;5.50;99.90;;;6.24;100.00;98355.50;5085419;28;20920;-80
2021/11/22 06:13:59;;;;;;;8.20;3.70;;;5.60;99.90;;;6.27;100.00;98355.19;5086363;28;21157;-80
2021/11/22 06:16:27;;;;;;;11.10;3.77;;;5.60;99.90;;;6.32;100.00;98364.16;5083452;28;20479;-80
2021/11/22 06:18:56;;;;;;;16.40;3.53;;;5.60;99.90;;;6.33;100.00;98359.78;5087609;28;20538;-81
2021/11/22 06:21:25;;;;;;;12.90;4.00;;;5.70;99.90;;;6.34;100.00;98357.03;5087097;28;21013;-80
2021/11/22 06:23:53;;;;;;;8.03;3.57;;;5.70;99.90;;;6.37;100.00;98371.50;5093321;28;20945;-80
2021/11/22 06:26:23;;;;;;;7.30;3.17;;;5.80;99.90;;;6.37;100.00;98371.50;5088789;28;20493;-80
2021/11/22 06:28:53;;;;;;;8.27;3.60;;;5.70;99.90;;;6.35;100.00;98378.63;5079196;28;20443;-80
2021/11/22 06:31:21;;;;;;;12.63;3.23;;;5.60;99.90;;;6.38;100.00;98388.72;5080364;28;20495;-80
2021/11/22 06:33:50;;;;;;;6.20;3.43;;;5.70;99.90;;;6.38;100.00;98392.13;5079323;28;20453;-80
2021/11/22 06:36:19;;;;;;;8.07;3.60;;;5.70;99.90;;;6.39;100.00;98396.34;5084565;28;20444;-80
2021/11/22 06:38:47;;;;;;;9.43;3.90;;;5.70;99.90;;;6.39;100.00;98406.72;5085433;28;20524;-80
2021/11/22 06:41:16;;;;;;;10.77;3.80;;;5.80;99.90;;;6.37;100.00;98411.28;5081037;28;20928;-80
2021/11/22 06:43:46;;;;;;;6.67;3.33;;;5.70;99.90;;;6.37;100.00;98413.06;5083098;28;20781;-80
2021/11/22 06:46:15;;;;;;;5.90;3.97;;;5.70;99.90;;;6.35;100.00;98420.97;5076509;28;21063;-80
2021/11/22 06:48:43;;;;;;;10.67;3.73;;;5.70;99.90;;;6.37;100.00;98429.44;5081219;28;20985;-80
2021/11/22 06:51:12;;;;;;;7.07;3.60;;;5.70;99.90;;;6.33;100.00;98435.91;5077708;28;20553;-80
2021/11/22 06:53:41;;;;;;;7.50;3.20;;;5.70;99.90;;;6.36;100.00;98439.97;5082257;28;20451;-80
2021/11/22 06:56:09;;;;;;;8.70;3.67;;;5.70;99.90;;;6.35;100.00;98435.78;5085379;28;20493;-80
2021/11/22 06:58:38;;;;;;;9.43;3.37;;;5.70;99.90;;;6.33;100.00;98443.69;5085716;28;20447;-80
2021/11/22 07:01:08;;;;;;;8.27;3.17;;;5.70;99.90;;;6.34;100.00;98450.53;5075673;28;20449;-80
2021/11/22 07:03:36;;;;;;;4.17;3.37;;;5.80;99.90;;;6.33;100.00;98448.91;5070365;28;20455;-80
2021/11/22 07:06:07;;;;;;;11.03;3.10;;;5.70;99.90;;;6.33;100.00;98459.28;5069874;28;20483;-80
2021/11/22 07:08:36;;;;;;;8.23;3.07;;;5.70;99.90;;;6.35;100.00;98467.72;5062288;28;20955;-80
2021/11/22 07:11:05;;;;;;;9.43;3.40;;;5.70;99.90;;;6.38;100.00;98464.84;5065766;28;20511;-80
2021/11/22 07:13:34;;;;;;;4.10;2.87;;;5.70;99.90;;;6.33;100.00;98469.66;5063206;28;20878;-80
2021/11/22 07:16:03;;;;;;;7.37;3.20;;;5.70;99.90;;;6.34;100.00;98475.69;5072029;28;20448;-80
2021/11/22 07:18:34;;;;;;;11.10;3.40;;;5.70;99.90;;;6.33;100.00;98480.06;5065487;28;20792;-80
2021/11/22 07:21:03;;;;;;;5.90;3.13;;;5.70;99.90;;;6.31;100.00;98492.38;5065274;28;20444;-81
2021/11/22 07:23:31;;;;;;;8.07;3.77;;;5.70;99.90;;;6.32;100.00;98494.00;5071441;28;20476;-81
2021/11/22 07:26:00;;;;;;;8.77;3.60;;;5.70;99.90;;;6.33;100.00;98493.03;5070163;28;20924;-81
2021/11/22 07:28:29;;;;;;;9.17;2.93;;;5.70;99.90;;;6.31;100.00;98496.75;5071219;28;20452;-80
2021/11/22 07:30:58;;;;;;;13.03;3.00;;;5.70;99.90;;;6.29;100.00;98498.66;5072163;28;20561;-80
2021/11/22 07:33:26;;;;;;;5.67;3.13;;;5.70;99.90;;;6.32;100.00;98499.19;5068431;28;20889;-82
2021/11/22 07:35:57;;;;;;;17.43;3.97;;;5.80;99.90;;;6.32;100.00;98504.38;5069684;28;20448;-80
2021/11/22 07:38:25;;;;;;;6.70;3.50;;;5.70;99.90;;;6.33;100.00;98519.00;5072439;28;20521;-80
2021/11/22 07:40:54;;;;;;;5.40;3.10;;;5.70;99.90;;;6.33;100.00;98515.59;5070317;28;20456;-80
2021/11/22 07:43:23;;;;;;;10.27;4.00;;;5.70;99.90;;;6.33;100.00;98515.59;5064489;28;20913;-80
2021/11/22 07:45:52;;;;;;;10.80;3.33;;;5.80;99.90;;;6.32;100.00;98514.78;5061046;28;20468;-80
2021/11/22 07:48:21;;;;;;;6.00;2.60;;;5.70;99.90;;;6.35;100.00;98518.88;5058256;28;20937;-80
2021/11/22 07:50:49;;;;;;;6.00;3.30;;;5.70;99.90;;;6.35;100.00;98524.84;5066776;28;20506;-80
2021/11/22 07:53:38;;;;;;;8.17;3.40;;;5.80;99.90;;;6.33;100.00;98529.41;5067171;28;20502;-80
2021/11/22 07:56:08;;;;;;;8.53;2.90;;;5.70;99.90;;;6.33;100.00;98529.41;5060042;28;20445;-80
2021/11/22 07:58:37;;;;;;;6.70;2.27;;;5.70;99.90;;;6.36;100.00;98531.69;5062299;28;20440;-80
2021/11/22 08:01:06;;;;;;;6.13;2.63;;;5.70;99.90;;;6.36;100.00;98531.69;5067600;28;20514;-80
2021/11/22 08:03:35;;;;;;;7.47;3.03;;;5.70;99.90;;;6.36;100.00;98542.09;5076996;28;20459;-80
2021/11/22 08:06:04;;;;;;;4.60;2.63;;;5.70;99.90;;;6.40;100.00;98543.44;5057455;28;20457;-80
2021/11/22 08:08:37;;;;;;;14.17;4.00;;;5.70;99.90;;;6.40;100.00;98547.78;5067711;28;20486;-80
2021/11/22 08:11:28;;;;;;;5.47;2.60;;;5.80;99.90;;;6.35;100.00;98550.81;5066415;28;20895;-80
2021/11/22 08:13:56;;;;;;;4.13;3.03;;;5.80;99.90;;;6.36;100.00;98556.84;5055912;28;20511;-80
2021/11/22 08:16:25;;;;;;;6.40;3.53;;;5.70;99.90;;;6.39;100.00;98559.97;5064329;28;20448;-80
2021/11/22 08:18:54;;;;;;;4.00;2.90;;;5.70;99.90;;;6.42;100.00;98561.47;5057567;28;20449;-80
2021/11/22 08:21:23;;;;;;;5.30;2.63;;;5.80;99.90;;;6.37;100.00;98561.91;5074449;28;20866;-80
2021/11/22 08:23:56;;;;;;;8.27;3.00;;;5.70;99.90;;;6.42;100.00;98567.47;5056286;28;20515;-80
2021/11/22 08:26:26;;;;;;;7.50;3.40;;;5.80;99.90;;;6.43;100.00;98571.69;5065558;28;20502;-80
2021/11/22 08:29:55;;;;;;;6.70;2.97;;;5.80;99.90;;;6.47;100.00;98572.22;5055857;28;20449;-81
2021/11/22 08:32:41;;;;;;;8.07;2.83;;;5.80;99.90;;;6.50;100.00;98584.91;5065707;28;20766;-80
2021/11/22 08:35:10;;;;;;;9.47;2.97;;;5.90;99.90;;;6.50;100.00;98585.72;5062351;28;20449;-80
2021/11/22 08:37:41;;;;;;;13.63;3.20;;;5.90;99.90;;;6.47;100.00;98583.44;5059062;28;20477;-80
2021/11/22 08:40:15;;;;;;;8.77;2.70;;;5.80;99.90;;;6.51;100.00;98579.56;5055327;28;20492;-80
2021/11/22 08:42:46;;;;;;;7.00;3.40;;;5.90;99.90;;;6.53;100.00;98590.63;5059659;28;20507;-81
2021/11/22 08:45:16;;;;;;;3.87;2.37;;;5.90;99.90;;;6.56;100.00;98590.31;5061100;28;20449;-80
2021/11/22 08:47:45;;;;;;;7.40;3.10;;;5.90;99.90;;;6.56;100.00;98592.91;5058702;28;20472;-80
2021/11/22 08:50:15;;;;;;;5.83;2.80;;;5.90;99.90;;;6.62;100.00;98603.69;5055252;28;20527;-80
2021/11/22 08:52:45;;;;;;;7.47;2.90;;;6.00;99.90;;;6.65;100.00;98603.41;5059884;28;20504;-80
2021/11/22 08:55:19;;;;;;;6.73;2.60;;;6.00;99.90;;;6.69;100.00;98607.34;5061666;28;20441;-80
2021/11/22 08:57:50;;;;;;;8.20;2.80;;;6.10;99.90;;;6.69;100.00;98609.94;5059576;28;20526;-80
2021/11/22 09:00:23;;;;;;;6.30;3.20;;;6.10;99.90;;;6.75;100.00;98617.13;5064345;28;20514;-80
2021/11/22 09:02:52;;;;;;;6.40;2.73;;;6.10;99.90;;;6.78;100.00;98620.25;5063889;28;20465;-81
2021/11/22 09:05:21;;;;;;;3.33;2.60;;;6.20;99.90;;;6.80;100.00;98620.13;5060392;28;20940;-80
2021/11/22 09:07:50;;;;;;;5.67;2.77;;;6.20;99.90;;;6.83;100.00;98632.81;5057115;28;20465;-79
2021/11/22 09:10:21;;;;;;;8.37;2.93;;;6.30;99.90;;;6.82;100.00;98637.19;5066363;28;20455;-80
2021/11/22 09:12:51;;;;;;;6.33;2.50;;;6.20;99.90;;;6.80;100.00;98643.50;5056000;28;20501;-80
2021/11/22 09:15:21;;;;;;;3.43;2.00;;;6.20;99.90;;;6.81;100.00;98653.75;5059652;28;20502;-80
2021/11/22 09:17:54;;;;;;;3.40;2.10;;;6.20;99.90;;;6.83;100.00;98648.41;5065893;28;21021;-80
2021/11/22 09:20:24;;;;;;;6.50;2.43;;;6.20;99.90;;;6.84;100.00;98650.84;5057646;28;20453;-80
2021/11/22 09:22:57;;;;;;;5.93;2.20;;;6.20;99.90;;;6.86;100.00;98661.94;5058225;28;20455;-80
2021/11/22 09:25:26;;;;;;;10.33;2.70;;;6.20;99.90;;;6.89;100.00;98660.81;5063553;28;20449;-80
2021/11/22 09:27:57;;;;;;;6.27;2.57;;;6.30;99.90;;;6.85;100.00;98656.84;5064442;28;20504;-79
2021/11/22 09:30:26;;;;;;;5.23;2.53;;;6.30;99.90;;;6.86;100.00;98653.31;5055159;28;20453;-80
2021/11/22 09:32:56;;;;;;;3.77;2.53;;;6.30;99.90;;;6.84;100.00;98661.22;5061176;28;20492;-80
2021/11/22 09:35:26;;;;;;;3.73;2.20;;;6.30;99.90;;;6.83;100.00;98669.19;5054921;28;20527;-80
2021/11/22 09:37:55;;;;;;;7.00;2.67;;;6.20;99.90;;;6.87;100.00;98663.53;5062336;28;20448;-80
2021/11/22 09:40:24;;;;;;;3.93;2.20;;;6.30;99.90;;;6.90;100.00;98678.03;5056854;28;20517;-80
2021/11/22 09:42:55;;;;;;;10.07;2.43;;;6.40;99.90;;;6.88;100.00;98675.56;5062362;28;20515;-79
2021/11/22 09:45:27;;;;;;;2.17;1.97;;;6.40;99.90;;;6.92;100.00;98673.50;5058162;28;20464;-80
2021/11/22 09:47:58;;;;;;;9.23;2.90;;;6.40;99.90;;;6.98;100.00;98670.28;5058553;28;21033;-80
2021/11/22 09:50:28;;;;;;;2.20;1.97;;;6.40;99.90;;;7.03;100.00;98670.69;5066077;28;20506;-80
2021/11/22 09:52:58;;;;;;;3.97;2.20;;;6.40;99.90;;;7.07;100.00;98672.03;5065523;28;20501;-80
2021/11/22 09:55:30;;;;;;;4.57;1.87;;;6.50;99.90;;;7.07;100.00;98674.63;5068070;28;20956;-82
2021/11/22 09:58:00;;;;;;;8.20;1.87;;;6.50;99.90;;;7.06;100.00;98678.19;5067554;28;20505;-80
2021/11/22 10:00:38;;;;;;;2.30;2.10;;;6.40;99.90;;;7.06;100.00;98685.97;5066744;28;20955;-80
2021/11/22 10:03:12;;;;;;;1.70;1.60;;;6.50;99.90;;;7.01;100.00;98689.00;5063969;28;20448;-80
2021/11/22 10:05:42;;;;;;;2.17;1.63;;;6.40;99.90;;;7.03;100.00;98699.28;5068296;28;21197;-80
2021/11/22 10:08:13;;;;;;;2.90;1.60;;;6.40;99.90;;;7.02;100.00;98690.66;5062064;28;20536;-79
2021/11/22 10:10:46;;;;;;;3.40;1.67;;;6.40;99.90;;;7.05;100.00;98689.53;5063715;28;20452;-79
2021/11/22 10:13:32;;;;;;;2.50;1.70;;;6.50;99.90;;;7.08;100.00;98689.22;5068735;28;20542;-80
2021/11/22 10:16:25;;;;;;;2.90;1.77;;;6.50;99.90;;;7.06;100.00;98698.97;5065498;28;20493;-80
2021/11/22 10:18:59;;;;;;;2.47;1.93;;;6.40;99.90;;;7.05;100.00;98705.13;5067983;28;20532;-80
2021/11/22 10:21:31;;;;;;;5.13;1.67;;;6.50;99.90;;;7.05;100.00;98695.56;5071250;28;20792;-80
2021/11/22 10:24:08;;;;;;;1.60;1.50;;;6.50;99.90;;;7.09;100.00;98696.06;5053967;28;20945;-80
2021/11/22 10:26:41;;;;;;;2.20;1.70;;;6.50;99.90;;;7.12;100.00;98708.78;5065009;28;20480;-80
2021/11/22 10:29:22;;;;;;;6.63;1.97;;;6.50;99.90;;;7.10;100.00;98710.72;5060443;28;20456;-80
2021/11/22 10:31:55;;;;;;;4.00;1.60;;;6.50;99.90;;;7.09;100.00;98703.88;5066423;28;20501;-80
2021/11/22 10:34:24;;;;;;;3.40;1.57;;;6.50;99.90;;;7.12;100.00;98687.97;5067628;28;20464;-80
2021/11/22 10:36:58;;;;;;;5.03;1.80;;;6.50;99.90;;;7.16;100.00;98704.09;5062594;28;20870;-80
2021/11/22 10:39:28;;;;;;;3.70;1.87;;;6.60;99.90;;;7.20;100.00;98708.03;5068212;28;20847;-80
2021/11/22 10:41:57;;;;;;;2.37;1.50;;;6.60;99.90;;;7.13;100.00;98713.03;5070909;28;20518;-80
2021/11/22 10:44:31;;;;;;;2.93;1.67;;;6.60;99.90;;;7.08;100.00;98715.25;5056871;28;20444;-78
2021/11/22 10:47:15;;;;;;;4.60;1.30;;;6.50;99.90;;;7.13;100.00;98710.44;5070119;28;20462;-79
2021/11/22 10:49:45;;;;;;;5.40;1.77;;;6.50;99.90;;;7.14;100.00;98725.06;5061730;28;20490;-79
2021/11/22 10:52:25;;;;;;;2.60;1.53;;;6.50;99.90;;;7.13;100.00;98713.03;5077516;28;20491;-79
2021/11/22 10:54:56;;;;;;;2.23;1.40;;;6.50;99.90;;;7.12;100.00;98716.59;5071612;28;20447;-79
2021/11/22 10:57:33;;;;;;;1.80;1.50;;;6.50;99.90;;;7.14;100.00;98719.88;5063983;28;20497;-79
2021/11/22 11:00:24;;;;;;;1.80;1.40;;;6.60;99.90;;;7.11;100.00;98725.38;5061761;28;20457;-79
2021/11/22 11:02:56;;;;;;;1.90;1.60;;;6.50;99.90;;;7.10;100.00;98734.13;5058743;28;20460;-79
2021/11/22 11:05:31;;;;;;;1.60;1.50;;;6.40;99.90;;;7.09;100.00;98716.88;5065670;28;20452;-79
2021/11/22 11:08:02;;;;;;;1.53;1.30;;;6.50;99.90;;;7.16;100.00;98714.50;5061322;28;20453;-79
2021/11/22 11:10:32;;;;;;;4.03;2.00;;;6.60;99.90;;;7.21;100.00;98723.50;5059869;28;20496;-79
2021/11/22 11:13:04;;;;;;;1.73;1.40;;;6.60;99.90;;;7.19;100.00;98725.44;5059652;28;20492;-79
2021/11/22 11:15:33;;;;;;;2.23;1.53;;;6.60;99.90;;;7.17;100.00;98729.97;5060774;28;20449;-80
2021/11/22 11:18:04;;;;;;;5.00;1.80;;;6.60;99.90;;;7.18;100.00;98729.00;5058704;28;20857;-79
2021/11/22 11:20:33;;;;;;;1.93;1.70;;;6.60;99.90;;;7.21;100.00;98733.91;5063741;28;20461;-79
2021/11/22 11:23:02;;;;;;;1.53;1.43;;;6.60;99.90;;;7.25;100.00;98735.25;5068735;28;20444;-79
2021/11/22 11:25:32;;;;;;;2.13;1.70;;;6.60;99.90;;;7.28;100.00;98732.34;5057384;28;20524;-79
2021/11/22 11:28:21;;;;;;;1.50;1.27;;;6.60;99.90;;;7.24;100.00;98736.22;5059675;28;20534;-79
2021/11/22 11:30:49;;;;;;;1.43;1.33;;;6.60;99.90;;;7.24;100.00;98740.59;5065183;28;20444;-79
2021/11/22 11:33:19;;;;;;;2.97;1.60;;;6.60;99.90;;;7.25;100.00;98748.25;5067220;28;20492;-79